Pulaski, Wisconsin
Current Conditions -  °F | °C
As of 12:46 PM on Monday 26 Jan 2015 (Local Time) from KGRB Reporting Station
Light Snow Light Snow  
Wind Chill: 15°   Ceiling: 1800
Heat Index: 25°   Visibility: 1mi
Dew Point: 21°   Wind: 10mph
Humidity: 85%   Direction: 180°S
Pressure: 29.86"   Gusts: NA
Location:  44.67°N, 88.24°W
Report Text: KGRB 261846Z 18009KT 1SM -SN BR BKN018 OVC029 M04/M06 A2986 RMK AO2 SNB00 P0001 T10391061 RVRNO
Loading
Personal Weather Stations






























Interactive Weather Map New forecast layout! Learn more

10-Day Weather Forecast

Advertisements
Track Severe Weather on mobile